createdAt,value
2022-08-04T00:01:15.406Z,98564.78
2022-08-04T00:04:19.752Z,98568.53
2022-08-04T00:07:00.781Z,98569.91
2022-08-04T00:10:09.737Z,98574.44
2022-08-04T00:12:47.793Z,98558.53
2022-08-04T00:15:24.486Z,98565.41
2022-08-04T00:18:13.300Z,98567.66
2022-08-04T00:20:45.388Z,98552.94
2022-08-04T00:23:23.207Z,98567.28
2022-08-04T00:26:02.535Z,98558.16
2022-08-04T00:28:34.673Z,98567.59
2022-08-04T00:31:15.055Z,98566.00
2022-08-04T00:33:51.212Z,98581.94
2022-08-04T00:36:43.972Z,98575.13
2022-08-04T00:39:16.601Z,98579.84
2022-08-04T00:42:11.546Z,98569.47
2022-08-04T00:44:57.997Z,98577.88
2022-08-04T00:48:07.785Z,98579.41
2022-08-04T00:51:20.324Z,98577.63
2022-08-04T00:54:15.095Z,98578.59
2022-08-04T00:57:01.787Z,98575.81
2022-08-04T00:59:59.457Z,98577.03
2022-08-04T01:03:00.658Z,98575.25
2022-08-04T01:06:08.969Z,98578.44
2022-08-04T01:09:08.775Z,98580.22
2022-08-04T01:12:06.842Z,98573.44
2022-08-04T01:15:18.290Z,98571.28
2022-08-04T01:18:18.339Z,98582.41
2022-08-04T01:21:24.270Z,98575.69
2022-08-04T01:24:21.853Z,98573.50
2022-08-04T01:27:16.291Z,98577.13
2022-08-04T01:30:01.544Z,98567.50
2022-08-04T01:33:01.565Z,98543.94
2022-08-04T01:35:47.813Z,98564.13
2022-08-04T01:38:46.593Z,98572.81
2022-08-04T01:41:19.395Z,98573.06
2022-08-04T01:44:11.473Z,98572.69
2022-08-04T01:46:50.158Z,98563.44
2022-08-04T01:49:23.106Z,98573.28
2022-08-04T01:51:55.418Z,98564.72
2022-08-04T01:54:27.907Z,98566.50
2022-08-04T01:57:00.632Z,98567.44
2022-08-04T01:59:56.380Z,98566.13
2022-08-04T02:02:27.719Z,98560.66
2022-08-04T02:05:06.746Z,98562.13
2022-08-04T02:07:46.222Z,98557.84
2022-08-04T02:10:34.330Z,98553.59
2022-08-04T02:13:49.096Z,98554.22
2022-08-04T02:16:52.427Z,98549.81
2022-08-04T02:19:25.250Z,98556.75
2022-08-04T02:22:05.429Z,98552.59
2022-08-04T02:24:44.107Z,98553.38
2022-08-04T02:27:18.301Z,98550.31
2022-08-04T02:29:52.166Z,98549.22
2022-08-04T02:32:43.222Z,98560.53
2022-08-04T02:35:29.577Z,98561.31
2022-08-04T02:38:41.148Z,98550.69
2022-08-04T02:41:13.704Z,98562.00
2022-08-04T02:43:51.642Z,98561.06
2022-08-04T02:46:23.089Z,98560.13
2022-08-04T02:52:05.653Z,98562.75
2022-08-04T02:54:52.348Z,98562.19
2022-08-04T02:57:33.933Z,98563.88
2022-08-04T03:00:17.677Z,98555.59
2022-08-04T03:03:06.358Z,98556.56
2022-08-04T03:06:01.482Z,98549.59
2022-08-04T03:09:06.650Z,98552.69
2022-08-04T03:12:15.569Z,98550.94
2022-08-04T03:15:14.445Z,98560.66
2022-08-04T03:18:17.081Z,98555.53
2022-08-04T03:21:21.987Z,98555.28
2022-08-04T03:24:49.553Z,98557.41
2022-08-04T03:28:04.743Z,98555.13
2022-08-04T03:31:06.229Z,98564.13
2022-08-04T03:34:13.987Z,98552.69
2022-08-04T03:36:50.409Z,98556.56
2022-08-04T03:40:03.156Z,98557.38
2022-08-04T03:43:09.670Z,98556.66
2022-08-04T03:46:30.910Z,98564.75
2022-08-04T03:49:35.036Z,98563.06
2022-08-04T03:52:24.388Z,98554.41
2022-08-04T03:55:28.714Z,98551.03
2022-08-04T03:58:30.497Z,98553.84
2022-08-04T04:02:02.582Z,98559.72
2022-08-04T04:05:04.626Z,98550.00
2022-08-04T04:08:01.758Z,98549.13
2022-08-04T04:11:12.668Z,98560.47
2022-08-04T04:14:15.341Z,98553.78
2022-08-04T04:17:14.255Z,98561.34
2022-08-04T04:20:16.455Z,98561.63
2022-08-04T04:23:38.913Z,98568.63
2022-08-04T04:27:04.709Z,98563.38
2022-08-04T04:30:02.380Z,98577.19
2022-08-04T04:32:34.952Z,98577.38
2022-08-04T04:35:36.411Z,98579.97
2022-08-04T04:38:32.851Z,98584.59
2022-08-04T04:41:47.337Z,98577.16
2022-08-04T04:44:49.891Z,98589.16
2022-08-04T04:48:09.201Z,98589.38
2022-08-04T04:51:22.545Z,98586.66
2022-08-04T04:54:41.676Z,98593.66
2022-08-04T04:57:19.904Z,98595.94
2022-08-04T05:00:07.348Z,98595.13
2022-08-04T05:06:54.519Z,98542.03
2022-08-04T05:10:10.223Z,98593.91
2022-08-04T05:14:34.836Z,98589.31
2022-08-04T05:16:22.966Z,98588.66
2022-08-04T05:22:25.977Z,98583.22
2022-08-04T05:25:10.957Z,98566.94
2022-08-04T05:28:18.005Z,98585.00
2022-08-04T05:31:23.258Z,98580.81
2022-08-04T05:34:30.697Z,98579.19
2022-08-04T05:37:33.982Z,98585.78
2022-08-04T05:40:25.816Z,98584.97
2022-08-04T05:42:56.891Z,98584.22
2022-08-04T05:45:27.073Z,98572.34
2022-08-04T05:48:18.510Z,98583.88
2022-08-04T05:51:03.745Z,98583.59
2022-08-04T05:53:33.953Z,98573.28
2022-08-04T05:56:09.938Z,98576.53
2022-08-04T05:58:39.785Z,98570.06
2022-08-04T06:01:11.987Z,98563.25
2022-08-04T06:03:43.597Z,98562.59
2022-08-04T06:06:21.086Z,98564.13
2022-08-04T06:08:54.890Z,98562.59
2022-08-04T06:11:26.781Z,98562.34
2022-08-04T06:14:04.747Z,98563.28
2022-08-04T06:16:51.399Z,98560.13
2022-08-04T06:19:59.695Z,98555.78
2022-08-04T06:22:20.367Z,98554.00
2022-08-04T06:25:01.777Z,98538.34
2022-08-04T06:27:35.888Z,98552.19
2022-08-04T06:30:29.708Z,98546.06
2022-08-04T06:33:26.948Z,98547.69
2022-08-04T06:36:04.137Z,98545.72
2022-08-04T06:38:44.971Z,98550.91
2022-08-04T06:41:19.333Z,98545.53
2022-08-04T06:43:53.422Z,98547.38
2022-08-04T06:46:27.608Z,98548.31
2022-08-04T06:49:06.838Z,98544.75
2022-08-04T06:51:49.237Z,98543.31
2022-08-04T06:54:24.419Z,98541.66
2022-08-04T06:57:10.406Z,98543.69
2022-08-04T06:59:47.115Z,98513.47
2022-08-04T07:02:34.770Z,98536.22
2022-08-04T07:05:07.897Z,98539.38
2022-08-04T07:07:58.110Z,98537.91
2022-08-04T07:10:39.378Z,98536.06
2022-08-04T07:13:17.186Z,98521.09
2022-08-04T07:15:49.913Z,98537.38
2022-08-04T07:18:18.481Z,98518.50
2022-08-04T07:20:48.464Z,98513.44
2022-08-04T07:23:31.656Z,98531.94
2022-08-04T07:26:16.515Z,98529.97
2022-08-04T07:28:53.342Z,98516.69
2022-08-04T07:31:33.022Z,98526.47
2022-08-04T07:34:20.761Z,98516.44
2022-08-04T07:37:02.822Z,98523.38
2022-08-04T07:39:48.107Z,98520.91
2022-08-04T07:42:25.239Z,98519.03
2022-08-04T07:45:05.849Z,98518.63
2022-08-04T07:48:04.816Z,98521.47
2022-08-04T07:50:44.752Z,98525.56
2022-08-04T07:53:55.343Z,98517.88
2022-08-04T07:56:06.281Z,98513.03
2022-08-04T07:58:35.671Z,98510.63
2022-08-04T08:01:10.661Z,98504.13
2022-08-04T08:03:43.589Z,98518.25
2022-08-04T08:06:33.191Z,98524.38
2022-08-04T08:09:13.628Z,98505.78
2022-08-04T08:12:38.401Z,98498.81
2022-08-04T08:14:44.691Z,98514.97
2022-08-04T08:17:18.725Z,98504.00
2022-08-04T08:19:52.191Z,98501.13
2022-08-04T08:22:22.425Z,98501.59
2022-08-04T08:24:55.590Z,98499.50
2022-08-04T08:27:25.916Z,98502.28
2022-08-04T08:29:56.818Z,98499.28
2022-08-04T08:32:30.692Z,98497.16
2022-08-04T08:35:01.431Z,98493.22
2022-08-04T08:38:04.477Z,98499.31
2022-08-04T08:41:32.865Z,98493.56
2022-08-04T08:44:45.562Z,98490.13
2022-08-04T08:48:04.831Z,98483.31
2022-08-04T08:51:01.866Z,98485.94
2022-08-04T08:54:00.315Z,98468.50
2022-08-04T08:56:55.795Z,98479.09
2022-08-04T08:59:50.726Z,98473.78
2022-08-04T09:03:19.556Z,98469.19
2022-08-04T09:06:16.666Z,98475.06
2022-08-04T09:09:24.526Z,98472.59
2022-08-04T09:15:51.176Z,98468.91
2022-08-04T09:19:03.551Z,98457.56
2022-08-04T09:21:55.023Z,98476.84
2022-08-04T09:24:36.281Z,98464.38
2022-08-04T09:27:47.398Z,98463.69
2022-08-04T09:30:23.078Z,98459.59
2022-08-04T09:32:55.015Z,98462.47
2022-08-04T09:36:12.060Z,98457.56
2022-08-04T09:38:56.700Z,98465.53
2022-08-04T09:42:16.978Z,98456.50
2022-08-04T09:45:26.520Z,98452.91
2022-08-04T09:48:18.941Z,98459.28
2022-08-04T09:51:00.648Z,98450.63
2022-08-04T09:54:02.170Z,98448.97
2022-08-04T09:56:47.295Z,98442.25
2022-08-04T09:59:37.887Z,98439.09
2022-08-04T10:02:11.693Z,98437.59
2022-08-04T10:04:50.138Z,98433.19
2022-08-04T10:07:33.767Z,98427.13
2022-08-04T10:10:40.746Z,98421.56
2022-08-04T10:13:32.879Z,98425.41
2022-08-04T10:16:37.926Z,98411.81
2022-08-04T10:19:36.480Z,98427.41
2022-08-04T10:22:29.739Z,98422.44
2022-08-04T10:26:05.486Z,98433.31
2022-08-04T10:28:50.105Z,98421.81
2022-08-04T10:31:28.049Z,98404.81
2022-08-04T10:34:03.499Z,98414.34
2022-08-04T10:36:56.219Z,98403.53
2022-08-04T10:39:44.806Z,98408.72
2022-08-04T10:42:37.246Z,98405.88
2022-08-04T10:45:22.637Z,98405.81
2022-08-04T10:48:05.808Z,98401.16
2022-08-04T10:50:55.448Z,98388.56
2022-08-04T10:53:36.912Z,98386.28
2022-08-04T10:56:20.930Z,98379.91
2022-08-04T10:59:05.914Z,98391.75
2022-08-04T11:02:01.006Z,98384.50
2022-08-04T11:04:47.837Z,98371.22
2022-08-04T11:07:36.617Z,98380.81
2022-08-04T11:10:07.756Z,98381.63
2022-08-04T11:12:41.562Z,98370.81
2022-08-04T11:15:24.791Z,98386.81
2022-08-04T11:18:16.564Z,98377.00
2022-08-04T11:21:23.750Z,98367.72
2022-08-04T11:24:09.977Z,98370.25
2022-08-04T11:26:55.078Z,98360.53
2022-08-04T11:30:00.159Z,98366.78
2022-08-04T11:32:54.531Z,98359.69
2022-08-04T11:35:40.733Z,98354.25
2022-08-04T11:39:08.336Z,98355.97
2022-08-04T11:41:52.931Z,98356.88
2022-08-04T11:44:58.910Z,98352.09
2022-08-04T11:48:01.058Z,98346.94
2022-08-04T11:50:53.838Z,98347.59
2022-08-04T11:53:36.770Z,98352.19
2022-08-04T11:56:35.843Z,98350.84
2022-08-04T11:59:20.022Z,98346.56
2022-08-04T12:02:39.435Z,98338.63
2022-08-04T12:05:33.598Z,98344.53
2022-08-04T12:08:36.791Z,98332.28
2022-08-04T12:11:20.752Z,98328.25
2022-08-04T12:14:35.627Z,98333.19
2022-08-04T12:17:24.842Z,98309.38
2022-08-04T12:20:40.343Z,98307.13
2022-08-04T12:22:59.827Z,98317.94
2022-08-04T12:25:45.114Z,98319.06
2022-08-04T12:31:50.311Z,98315.53
2022-08-04T12:34:40.951Z,98302.06
2022-08-04T12:37:32.023Z,98304.03
2022-08-04T12:40:30.278Z,98296.03
2022-08-04T12:43:17.273Z,98296.03
2022-08-04T12:45:57.788Z,98287.81
2022-08-04T12:48:30.797Z,98290.16
2022-08-04T12:51:03.782Z,98285.75
2022-08-04T12:53:51.303Z,98291.69
2022-08-04T12:56:32.832Z,98283.22
2022-08-04T12:59:17.113Z,98277.69
2022-08-04T13:02:09.427Z,98282.03
2022-08-04T13:04:52.156Z,98279.16
2022-08-04T13:08:01.315Z,98283.34
2022-08-04T13:10:47.281Z,98285.59
2022-08-04T13:13:31.058Z,98270.47
2022-08-04T13:16:22.970Z,98275.53
2022-08-04T13:18:54.268Z,98270.25
2022-08-04T13:21:49.988Z,98272.03
2022-08-04T13:27:29.607Z,98270.81
2022-08-04T13:30:24.273Z,98271.31
2022-08-04T13:30:38.353Z,98272.19
2022-08-04T13:33:14.592Z,98255.41
2022-08-04T13:35:56.875Z,98261.97
2022-08-04T13:38:30.835Z,98267.41
2022-08-04T13:41:15.916Z,98253.84
2022-08-04T13:44:18.119Z,98257.75
2022-08-04T13:47:01.325Z,98257.13
2022-08-04T13:49:42.438Z,98255.03
2022-08-04T13:52:27.616Z,98252.09
2022-08-04T13:54:56.722Z,98240.09
2022-08-04T13:57:42.829Z,98242.22
2022-08-04T14:00:29.472Z,98242.94
2022-08-04T14:03:19.071Z,98246.38
2022-08-04T14:06:29.769Z,98244.06
2022-08-04T14:09:35.601Z,98243.69
2022-08-04T14:12:38.589Z,98236.47
2022-08-04T14:16:02.443Z,98237.75
2022-08-04T14:18:45.825Z,98236.47
2022-08-04T14:21:19.110Z,98242.97
2022-08-04T14:24:00.572Z,98235.38
2022-08-04T14:26:40.140Z,98219.41
2022-08-04T14:29:29.277Z,98228.19
2022-08-04T14:32:15.041Z,98222.09
2022-08-04T14:34:54.455Z,98224.06
2022-08-04T14:37:48.721Z,98210.44
2022-08-04T14:40:39.822Z,98220.09
2022-08-04T14:43:22.084Z,98223.19
2022-08-04T14:46:05.513Z,98219.00
2022-08-04T14:48:42.715Z,98205.84
2022-08-04T14:51:36.649Z,98209.19
2022-08-04T14:54:12.100Z,98203.88
2022-08-04T14:56:54.293Z,98199.66
2022-08-04T14:59:25.415Z,98191.53
2022-08-04T15:02:07.210Z,98198.28
2022-08-04T15:04:40.434Z,98206.19
2022-08-04T15:07:17.299Z,98191.03
2022-08-04T15:09:50.812Z,98203.34
2022-08-04T15:17:48.707Z,98176.38
2022-08-04T15:20:20.855Z,98189.34
2022-08-04T15:22:55.270Z,98191.63
2022-08-04T15:25:32.975Z,98188.38
2022-08-04T15:28:18.045Z,98193.28
2022-08-04T15:30:54.338Z,98192.25
2022-08-04T15:33:33.795Z,98190.38
2022-08-04T15:37:03.189Z,98178.81
2022-08-04T15:40:00.025Z,98180.06
2022-08-04T15:42:39.967Z,98176.25
2022-08-04T15:48:08.477Z,98173.25
2022-08-04T15:50:52.174Z,98169.81
2022-08-04T15:54:02.323Z,98164.41
2022-08-04T15:56:31.308Z,98175.47
2022-08-04T15:59:02.180Z,98167.50
2022-08-04T16:01:38.581Z,98155.88
2022-08-04T16:04:32.405Z,98163.16
2022-08-04T16:07:13.597Z,98156.72
2022-08-04T16:09:46.652Z,98147.53
2022-08-04T16:13:03.523Z,98153.53
2022-08-04T16:16:05.961Z,98145.31
2022-08-04T16:18:44.177Z,98139.94
2022-08-04T16:21:44.057Z,98146.16
2022-08-04T16:24:35.088Z,98142.69
2022-08-04T16:27:21.348Z,98143.88
2022-08-04T16:30:20.551Z,98140.94
2022-08-04T16:32:53.389Z,98137.50
2022-08-04T16:35:28.946Z,98143.19
2022-08-04T16:38:20.507Z,98134.38
2022-08-04T16:41:12.525Z,98124.09
2022-08-04T16:43:42.080Z,98126.59
2022-08-04T16:47:08.428Z,98143.75
2022-08-04T16:49:50.210Z,98134.97
2022-08-04T16:52:27.717Z,98132.59
2022-08-04T16:55:05.796Z,98135.66
2022-08-04T16:57:39.954Z,98132.94
2022-08-04T17:00:10.774Z,98142.78
2022-08-04T17:02:45.281Z,98140.22
2022-08-04T17:05:37.930Z,98137.50
2022-08-04T17:08:29.653Z,98135.59
2022-08-04T17:11:05.483Z,98142.72
2022-08-04T17:14:04.778Z,98132.75
2022-08-04T17:16:44.273Z,98146.41
2022-08-04T17:19:24.481Z,98145.34
2022-08-04T17:22:06.314Z,98152.63
2022-08-04T17:24:44.104Z,98132.19
2022-08-04T17:28:08.658Z,98149.91
2022-08-04T17:30:11.268Z,98155.88
2022-08-04T17:32:51.651Z,98156.56
2022-08-04T17:35:38.833Z,98150.97
2022-08-04T17:38:08.890Z,98143.94
2022-08-04T17:41:19.139Z,98156.88
2022-08-04T17:44:07.590Z,98158.25
2022-08-04T17:46:49.055Z,98157.34
2022-08-04T17:49:30.037Z,98160.94
2022-08-04T17:52:44.974Z,98161.06
2022-08-04T17:55:20.629Z,98160.91
2022-08-04T17:57:53.061Z,98168.59
2022-08-04T18:00:25.344Z,98164.31
2022-08-04T18:03:07.440Z,98164.50
2022-08-04T18:06:01.783Z,98166.91
2022-08-04T18:08:50.064Z,98164.22
2022-08-04T18:11:41.996Z,98170.63
2022-08-04T18:14:25.875Z,98170.38
2022-08-04T18:18:19.703Z,98179.63
2022-08-04T18:20:08.214Z,98175.44
2022-08-04T18:22:46.956Z,98185.78
2022-08-04T18:25:50.521Z,98182.16
2022-08-04T18:28:26.874Z,98176.63
2022-08-04T18:30:58.106Z,98179.41
2022-08-04T18:33:40.286Z,98193.25
2022-08-04T18:36:35.340Z,98205.50
2022-08-04T18:39:18.491Z,98202.22
2022-08-04T18:42:16.111Z,98198.91
2022-08-04T18:44:53.929Z,98205.13
2022-08-04T18:47:30.015Z,98204.22
2022-08-04T18:51:00.634Z,98195.91
2022-08-04T18:53:12.169Z,98194.59
2022-08-04T18:55:57.047Z,98203.25
2022-08-04T18:58:27.997Z,98226.56
2022-08-04T19:01:03.178Z,98237.16
2022-08-04T19:03:52.277Z,98232.28
2022-08-04T19:06:28.325Z,98240.41
2022-08-04T19:09:16.221Z,98240.78
2022-08-04T19:11:55.293Z,98233.88
2022-08-04T19:14:29.225Z,98240.34
2022-08-04T19:17:05.542Z,98239.19
2022-08-04T19:19:50.156Z,98242.03
2022-08-04T19:22:36.143Z,98243.19
2022-08-04T19:25:13.746Z,98245.13
2022-08-04T19:28:17.426Z,98244.28
2022-08-04T19:30:54.985Z,98248.34
2022-08-04T19:33:55.304Z,98245.31
2022-08-04T19:36:39.377Z,98248.53
2022-08-04T19:39:18.720Z,98252.53
2022-08-04T19:42:05.572Z,98255.91
2022-08-04T19:44:37.369Z,98256.41
2022-08-04T19:48:16.475Z,98261.25
2022-08-04T19:50:10.786Z,98263.59
2022-08-04T19:52:51.413Z,98269.69
2022-08-04T19:55:40.652Z,98275.22
2022-08-04T19:58:26.167Z,98274.09
2022-08-04T20:00:58.365Z,98279.44
2022-08-04T20:04:10.212Z,98259.88
2022-08-04T20:06:28.926Z,98270.13
2022-08-04T20:09:25.023Z,98277.78
2022-08-04T20:12:15.568Z,98285.91
2022-08-04T20:14:46.173Z,98278.59
2022-08-04T20:18:07.697Z,98289.91
2022-08-04T20:20:13.398Z,98295.66
2022-08-04T20:22:52.976Z,98299.28
2022-08-04T20:25:36.289Z,98305.75
2022-08-04T20:28:25.814Z,98300.47
2022-08-04T20:31:04.671Z,98293.66
2022-08-04T20:36:32.762Z,98302.53
2022-08-04T20:39:03.760Z,98299.72
2022-08-04T20:41:45.732Z,98302.97
2022-08-04T20:44:24.081Z,98299.72
2022-08-04T20:47:09.733Z,98297.25
2022-08-04T20:49:46.114Z,98297.66
2022-08-04T20:52:28.764Z,98303.75
2022-08-04T20:55:00.233Z,98297.28
2022-08-04T20:57:49.565Z,98303.72
2022-08-04T21:00:35.603Z,98302.09
2022-08-04T21:03:13.533Z,98312.59
2022-08-04T21:05:47.644Z,98310.13
2022-08-04T21:08:19.808Z,98308.53
2022-08-04T21:10:58.333Z,98308.84
2022-08-04T21:13:44.453Z,98313.00
2022-08-04T21:19:24.565Z,98310.81
2022-08-04T21:21:56.990Z,98309.91
2022-08-04T21:24:30.884Z,98302.69
2022-08-04T21:27:02.282Z,98326.94
2022-08-04T21:29:42.610Z,98314.03
2022-08-04T21:32:21.978Z,98320.22
2022-08-04T21:35:05.364Z,98317.09
2022-08-04T21:37:58.345Z,98323.44
2022-08-04T21:40:53.801Z,98326.75
2022-08-04T21:43:43.081Z,98328.00
2022-08-04T21:46:15.166Z,98335.88
2022-08-04T21:48:53.229Z,98322.44
2022-08-04T21:52:00.760Z,98336.81
2022-08-04T21:54:32.830Z,98341.38
2022-08-04T21:57:06.367Z,98332.94
2022-08-04T21:59:45.830Z,98339.72
2022-08-04T22:02:16.349Z,98341.16
2022-08-04T22:04:49.515Z,98345.38
2022-08-04T22:07:18.488Z,98331.09
2022-08-04T22:10:00.573Z,98343.38
2022-08-04T22:12:34.552Z,98332.59
2022-08-04T22:15:23.172Z,98311.97
2022-08-04T22:18:08.804Z,98344.81
2022-08-04T22:20:43.394Z,98339.47
2022-08-04T22:23:27.924Z,98342.16
2022-08-04T22:25:58.409Z,98347.19
2022-08-04T22:28:30.545Z,98350.03
2022-08-04T22:31:23.543Z,98349.50
2022-08-04T22:34:07.034Z,98347.19
2022-08-04T22:36:48.169Z,98344.50
2022-08-04T22:39:23.513Z,98344.28
2022-08-04T22:42:04.198Z,98345.38
2022-08-04T22:44:39.629Z,98340.81
2022-08-04T22:47:10.459Z,98340.41
2022-08-04T22:50:13.817Z,98345.63
2022-08-04T22:52:56.252Z,98343.34
2022-08-04T22:56:07.195Z,98349.66
2022-08-04T22:58:30.953Z,98344.72
2022-08-04T23:01:04.513Z,98348.88
2022-08-04T23:03:39.034Z,98344.19
2022-08-04T23:06:10.989Z,98349.56
2022-08-04T23:08:52.529Z,98347.63
2022-08-04T23:11:23.681Z,98354.53
2022-08-04T23:14:03.092Z,98350.03
2022-08-04T23:16:40.815Z,98350.34
2022-08-04T23:19:15.369Z,98355.66
2022-08-04T23:22:00.828Z,98350.84
2022-08-04T23:24:33.483Z,98345.22
2022-08-04T23:27:21.333Z,98342.13
2022-08-04T23:30:01.002Z,98349.28
2022-08-04T23:32:32.865Z,98347.22
2022-08-04T23:35:02.938Z,98348.53
2022-08-04T23:37:57.288Z,98349.88
2022-08-04T23:40:34.744Z,98339.28
2022-08-04T23:43:24.951Z,98336.19
2022-08-04T23:46:19.114Z,98332.47
2022-08-04T23:48:53.449Z,98339.31
2022-08-04T23:51:22.344Z,98339.41
2022-08-04T23:54:03.393Z,98333.50
2022-08-04T23:56:42.040Z,98327.03
2022-08-04T23:59:49.149Z,98332.97
